• Join FlightAware (Why Join?)
  • Login
  • US Flag 
07:33PM EDT


 

Airport Tracker/Info


-or-


 

Live Flight TrackerFlight Track Log ✈ SWA22 ✈ 19-Apr-2013 ✈ KHRL - KHOU

Flight Track Log - Related Links

Times and Time Zones

All times are in EDT time to prevent confusion due to time zone crossing. See the SWA22 flight status page for this flight to view local times or setup timezone preferences in your user account.

Time Position Orientation Groundspeed Altitude Reporting Facility
EDT Latitude Longitude Course Direction KTS MPH feet Rate Location/Type
11:06AM 26.2442 -97.6603 North 132 152 1,000  Level Houston Center
11:07AM 26.2794 -97.6578 North 150 173 2,600 2,220 Climbing Houston Center
11:08AM 26.3342 -97.6547 North 199 229 5,100 3,000 Climbing Houston Center
11:09AM 26.4061 -97.6347 14° North 246 283 8,500 2,640 Climbing Houston Center
11:10AM 26.4844 -97.6078 17° North 296 341 10,600 2,220 Climbing Houston Center
11:11AM 26.5811 -97.5850 12° North 352 405 13,200 2,940 Climbing Houston Center
11:12AM 26.6889 -97.5742 North 381 438 16,700 2,580 Climbing Houston Center
11:13AM 26.7936 -97.5633 North 382 440 18,600 2,160 Climbing Houston Center
11:14AM 26.9131 -97.5503 North 403 464 21,200 1,980 Climbing Houston Center
11:15AM 27.0272 -97.5383 North 415 478 22,800 1,980 Climbing Houston Center
11:16AM 27.1517 -97.5272 North 406 467 25,400 1,980 Climbing Houston Center
11:17AM 27.2711 -97.5131 North 433 498 26,900 1,920 Climbing Houston Center
11:18AM 27.3936 -97.5003 North 444 511 29,400 1,980 Climbing Houston Center
11:19AM 27.5089 -97.4606 17° North 453 521 31,000 720 Climbing Houston Center
11:20AM 27.6211 -97.3731 35° Northeast 489 563 30,900  Descending Houston Center
11:21AM 27.7553 -97.2689 34° Northeast 489 563 31,000  Climbing Houston Center
11:22AM 27.8672 -97.1808 35° Northeast 490 564 31,000  Level Houston Center
11:23AM 27.9778 -97.0939 35° Northeast 496 571 31,000  Level Houston Center
11:24AM 28.0931 -97.0056 34° Northeast 501 577 31,000  Level Houston Center
11:25AM 28.2072 -96.9158 35° Northeast 501 577 31,000 -60 Level Houston Center
11:26AM 28.3447 -96.8064 35° Northeast 503 579 30,900 -60 Descending Houston Center
11:27AM 28.4606 -96.7153 35° Northeast 507 583 30,900 -1,440 Level Houston Center
11:28AM 28.5767 -96.6200 36° Northeast 513 590 28,000 -2,700 Descending Houston Center
11:29AM 28.6936 -96.5272 35° Northeast 516 594 25,400 -2,280 Descending Houston Center
11:30AM 28.8042 -96.4381 35° Northeast 500 575 23,300 -2,460 Descending Houston Center
11:31AM 28.9278 -96.3414 34° Northeast 462 532 20,400 -2,460 Descending Houston Center
11:32AM 29.0331 -96.2847 25° Northeast 424 488 18,300 -2,340 Descending Houston Center
11:33AM 29.1242 -96.2003 39° Northeast 420 483 15,600 -2,520 Descending Houston Center
11:34AM 29.1928 -96.1392 38° Northeast 412 474 13,900 -2,160 Descending Houston Center
11:34AM 29.2125 -96.1200 40° Northeast 412 474 13,400 -1,680 Descending Houston Center
11:35AM 29.2842 -96.0547 38° Northeast 382 440 12,200 -1,380 Descending Houston Center
11:35AM 29.2947 -96.0442 41° Northeast 389 448 12,000 -1,200 Descending Houston Center
11:36AM 29.3481 -95.9708 50° Northeast 323 372 10,900 -1,260 Descending Houston Center
11:37AM 29.3531 -95.9550 70° East 332 382 10,700 -1,620 Descending Houston Center
11:37AM 29.3714 -95.8769 75° East 334 384 9,400 -1,560 Descending Houston Center
11:38AM 29.3756 -95.8525 79° East 331 381 9,100 -1,620 Descending Houston Center
11:38AM 29.3975 -95.7686 73° East 324 373 7,800 -1,500 Descending Houston Center
11:39AM 29.3997 -95.7539 80° East 325 374 7,600 -1,200 Descending Houston Center
11:39AM 29.4294 -95.6808 65° Northeast 281 323 6,600 -1,260 Descending Houston Center
11:40AM 29.4411 -95.6553 62° Northeast 286 329 6,300 -840 Descending Houston Center
11:40AM 29.4667 -95.6022 61° Northeast 248 285 5,700 -1,080 Descending Houston Center
11:41AM 29.4747 -95.5836 64° Northeast 262 302 5,200 -1,500 Descending Houston Center
11:41AM 29.4997 -95.5286 62° Northeast 247 284 4,200 -1,260 Descending Houston Center
11:42AM 29.5067 -95.5150 60° Northeast 250 288 3,900 -1,020 Descending Houston Center
11:42AM 29.5278 -95.4678 63° Northeast 231 266 3,300 -900 Descending Houston Center
11:43AM 29.5361 -95.4506 61° Northeast 235 270 3,000 -1,020 Descending Houston Center
11:43AM 29.5542 -95.4117 62° Northeast 186 214 2,300 -900 Descending Houston Center
11:44AM 29.5608 -95.3983 60° Northeast 205 236 2,100 -540 Descending Houston Center
11:44AM 29.5753 -95.3661 63° Northeast 171 197 1,800 -600 Descending Houston Center
11:45AM 29.5833 -95.3517 57° Northeast 186 214 1,500 -600 Descending Houston Center
11:45AM 29.5975 -95.3322 50° Northeast 114 131 1,200 -720 Descending Houston Center
11:46AM 29.6117 -95.3164 44° Northeast 145 167 800 -660 Descending Houston Center
11:46AM 29.6258 -95.3000 45° Northeast 131 151 500 -720 Descending Houston Center
11:47AM 29.6375 -95.2881 42° Northeast 131 151 100 -840 Descending Houston Center
11:49AM 29.6454 -95.2789 90° East  Level Estimated